sensor_id;sensor_type;location;lat;lon;timestamp;P1;durP1;ratioP1;P2;durP2;ratioP2
37203;SDS011;23098;48.054;10.636;2023-05-23T00:00:24;16.33;;;12.45;;
37203;SDS011;23098;48.054;10.636;2023-05-23T00:02:50;18.58;;;12.30;;
37203;SDS011;23098;48.054;10.636;2023-05-23T00:05:16;19.67;;;12.52;;
37203;SDS011;23098;48.054;10.636;2023-05-23T00:07:45;18.38;;;11.48;;
37203;SDS011;23098;48.054;10.636;2023-05-23T00:10:11;17.15;;;12.57;;
37203;SDS011;23098;48.054;10.636;2023-05-23T00:12:37;17.80;;;11.77;;
37203;SDS011;23098;48.054;10.636;2023-05-23T00:15:03;18.63;;;12.40;;
37203;SDS011;23098;48.054;10.636;2023-05-23T00:17:32;18.15;;;13.25;;
37203;SDS011;23098;48.054;10.636;2023-05-23T00:19:57;18.23;;;13.27;;
37203;SDS011;23098;48.054;10.636;2023-05-23T00:22:23;17.67;;;12.35;;
37203;SDS011;23098;48.054;10.636;2023-05-23T00:24:48;20.10;;;13.18;;
37203;SDS011;23098;48.054;10.636;2023-05-23T00:27:14;19.73;;;13.30;;
37203;SDS011;23098;48.054;10.636;2023-05-23T00:29:39;17.00;;;12.27;;
37203;SDS011;23098;48.054;10.636;2023-05-23T00:32:05;18.83;;;12.55;;
37203;SDS011;23098;48.054;10.636;2023-05-23T00:34:30;19.10;;;12.68;;
37203;SDS011;23098;48.054;10.636;2023-05-23T00:36:56;29.17;;;13.40;;
37203;SDS011;23098;48.054;10.636;2023-05-23T00:39:22;17.63;;;12.38;;
37203;SDS011;23098;48.054;10.636;2023-05-23T00:41:47;19.85;;;12.02;;
37203;SDS011;23098;48.054;10.636;2023-05-23T00:44:14;20.55;;;12.82;;
37203;SDS011;23098;48.054;10.636;2023-05-23T00:46:40;17.48;;;12.40;;
37203;SDS011;23098;48.054;10.636;2023-05-23T00:49:09;18.60;;;13.07;;
37203;SDS011;23098;48.054;10.636;2023-05-23T00:51:36;15.32;;;11.65;;
37203;SDS011;23098;48.054;10.636;2023-05-23T00:54:03;21.10;;;13.50;;
37203;SDS011;23098;48.054;10.636;2023-05-23T00:56:29;19.13;;;13.93;;
37203;SDS011;23098;48.054;10.636;2023-05-23T00:58:55;22.00;;;15.13;;
37203;SDS011;23098;48.054;10.636;2023-05-23T01:01:21;24.27;;;15.45;;
37203;SDS011;23098;48.054;10.636;2023-05-23T01:03:48;24.10;;;15.20;;
37203;SDS011;23098;48.054;10.636;2023-05-23T01:06:14;23.35;;;16.17;;
37203;SDS011;23098;48.054;10.636;2023-05-23T01:08:41;22.60;;;14.63;;
37203;SDS011;23098;48.054;10.636;2023-05-23T01:11:10;23.40;;;14.80;;
37203;SDS011;23098;48.054;10.636;2023-05-23T01:14:07;21.30;;;14.82;;
37203;SDS011;23098;48.054;10.636;2023-05-23T01:16:52;23.42;;;16.27;;
37203;SDS011;23098;48.054;10.636;2023-05-23T01:22:10;20.75;;;15.55;;
37203;SDS011;23098;48.054;10.636;2023-05-23T01:24:46;23.20;;;15.35;;
37203;SDS011;23098;48.054;10.636;2023-05-23T01:27:23;24.92;;;15.65;;
37203;SDS011;23098;48.054;10.636;2023-05-23T01:30:16;22.60;;;15.57;;
37203;SDS011;23098;48.054;10.636;2023-05-23T01:32:43;26.02;;;16.63;;
37203;SDS011;23098;48.054;10.636;2023-05-23T01:35:10;22.42;;;15.43;;
37203;SDS011;23098;48.054;10.636;2023-05-23T01:37:36;20.73;;;14.57;;
37203;SDS011;23098;48.054;10.636;2023-05-23T01:40:02;21.88;;;14.70;;
37203;SDS011;23098;48.054;10.636;2023-05-23T01:42:28;19.27;;;14.10;;
37203;SDS011;23098;48.054;10.636;2023-05-23T01:44:54;20.98;;;13.80;;
37203;SDS011;23098;48.054;10.636;2023-05-23T01:47:23;22.33;;;14.65;;
37203;SDS011;23098;48.054;10.636;2023-05-23T01:49:49;24.67;;;14.32;;
37203;SDS011;23098;48.054;10.636;2023-05-23T01:52:15;20.77;;;14.38;;
37203;SDS011;23098;48.054;10.636;2023-05-23T01:54:41;22.60;;;15.80;;
37203;SDS011;23098;48.054;10.636;2023-05-23T01:57:08;22.50;;;14.63;;
37203;SDS011;23098;48.054;10.636;2023-05-23T01:59:34;25.88;;;16.00;;
37203;SDS011;23098;48.054;10.636;2023-05-23T02:02:01;23.83;;;15.82;;
37203;SDS011;23098;48.054;10.636;2023-05-23T02:04:27;23.70;;;15.82;;
37203;SDS011;23098;48.054;10.636;2023-05-23T02:06:52;24.42;;;15.80;;
37203;SDS011;23098;48.054;10.636;2023-05-23T02:09:18;23.27;;;16.45;;
37203;SDS011;23098;48.054;10.636;2023-05-23T02:11:43;26.63;;;16.88;;
37203;SDS011;23098;48.054;10.636;2023-05-23T02:14:09;25.58;;;15.85;;
37203;SDS011;23098;48.054;10.636;2023-05-23T02:16:35;26.15;;;16.48;;
37203;SDS011;23098;48.054;10.636;2023-05-23T02:19:01;23.15;;;15.85;;
37203;SDS011;23098;48.054;10.636;2023-05-23T02:21:27;27.17;;;15.95;;
37203;SDS011;23098;48.054;10.636;2023-05-23T02:23:53;23.35;;;15.75;;
37203;SDS011;23098;48.054;10.636;2023-05-23T02:26:18;22.55;;;15.23;;
37203;SDS011;23098;48.054;10.636;2023-05-23T02:28:44;23.50;;;15.88;;
37203;SDS011;23098;48.054;10.636;2023-05-23T02:31:09;24.02;;;15.90;;
37203;SDS011;23098;48.054;10.636;2023-05-23T02:33:35;25.40;;;16.40;;
37203;SDS011;23098;48.054;10.636;2023-05-23T02:36:00;24.85;;;16.35;;
37203;SDS011;23098;48.054;10.636;2023-05-23T02:38:26;25.77;;;16.95;;
37203;SDS011;23098;48.054;10.636;2023-05-23T02:40:53;26.48;;;16.77;;
37203;SDS011;23098;48.054;10.636;2023-05-23T02:43:20;25.83;;;16.15;;
37203;SDS011;23098;48.054;10.636;2023-05-23T02:45:46;24.48;;;16.42;;
37203;SDS011;23098;48.054;10.636;2023-05-23T02:48:11;26.80;;;16.92;;
37203;SDS011;23098;48.054;10.636;2023-05-23T02:50:37;27.10;;;16.65;;
37203;SDS011;23098;48.054;10.636;2023-05-23T02:53:02;26.88;;;17.00;;
37203;SDS011;23098;48.054;10.636;2023-05-23T02:55:28;24.27;;;16.58;;
37203;SDS011;23098;48.054;10.636;2023-05-23T02:57:55;25.98;;;16.15;;
37203;SDS011;23098;48.054;10.636;2023-05-23T03:00:22;28.63;;;16.60;;
37203;SDS011;23098;48.054;10.636;2023-05-23T03:02:48;23.67;;;15.80;;
37203;SDS011;23098;48.054;10.636;2023-05-23T03:05:14;28.02;;;17.77;;
37203;SDS011;23098;48.054;10.636;2023-05-23T03:07:39;26.35;;;17.65;;
37203;SDS011;23098;48.054;10.636;2023-05-23T03:10:05;29.52;;;17.65;;
37203;SDS011;23098;48.054;10.636;2023-05-23T03:12:31;32.45;;;18.38;;
37203;SDS011;23098;48.054;10.636;2023-05-23T03:14:58;28.52;;;16.63;;
37203;SDS011;23098;48.054;10.636;2023-05-23T03:17:24;26.50;;;17.80;;
37203;SDS011;23098;48.054;10.636;2023-05-23T03:19:50;28.60;;;17.15;;
37203;SDS011;23098;48.054;10.636;2023-05-23T03:22:15;26.50;;;17.85;;
37203;SDS011;23098;48.054;10.636;2023-05-23T03:24:41;26.67;;;17.25;;
37203;SDS011;23098;48.054;10.636;2023-05-23T03:27:07;29.17;;;18.33;;
37203;SDS011;23098;48.054;10.636;2023-05-23T03:29:33;26.50;;;16.90;;
37203;SDS011;23098;48.054;10.636;2023-05-23T03:31:58;29.05;;;18.38;;
37203;SDS011;23098;48.054;10.636;2023-05-23T03:34:24;27.42;;;17.38;;
37203;SDS011;23098;48.054;10.636;2023-05-23T03:36:50;30.40;;;18.13;;
37203;SDS011;23098;48.054;10.636;2023-05-23T03:39:16;28.58;;;17.70;;
37203;SDS011;23098;48.054;10.636;2023-05-23T03:41:42;29.83;;;18.10;;
37203;SDS011;23098;48.054;10.636;2023-05-23T03:44:07;30.75;;;19.23;;
37203;SDS011;23098;48.054;10.636;2023-05-23T03:46:33;32.08;;;19.27;;
37203;SDS011;23098;48.054;10.636;2023-05-23T03:48:58;27.73;;;18.42;;
37203;SDS011;23098;48.054;10.636;2023-05-23T03:51:24;30.55;;;18.33;;
37203;SDS011;23098;48.054;10.636;2023-05-23T03:53:49;36.88;;;19.40;;
37203;SDS011;23098;48.054;10.636;2023-05-23T03:56:15;37.33;;;21.33;;
37203;SDS011;23098;48.054;10.636;2023-05-23T03:58:40;38.45;;;23.02;;
37203;SDS011;23098;48.054;10.636;2023-05-23T04:01:06;35.20;;;20.90;;
37203;SDS011;23098;48.054;10.636;2023-05-23T04:03:33;32.22;;;19.70;;
37203;SDS011;23098;48.054;10.636;2023-05-23T04:05:59;40.33;;;23.60;;
37203;SDS011;23098;48.054;10.636;2023-05-23T04:08:25;36.67;;;24.35;;
37203;SDS011;23098;48.054;10.636;2023-05-23T04:10:51;29.48;;;20.13;;
37203;SDS011;23098;48.054;10.636;2023-05-23T04:13:16;26.38;;;17.33;;
37203;SDS011;23098;48.054;10.636;2023-05-23T04:15:42;23.90;;;16.92;;
37203;SDS011;23098;48.054;10.636;2023-05-23T04:18:07;24.30;;;16.67;;
37203;SDS011;23098;48.054;10.636;2023-05-23T04:20:33;22.15;;;15.77;;
37203;SDS011;23098;48.054;10.636;2023-05-23T04:22:59;20.48;;;14.95;;
37203;SDS011;23098;48.054;10.636;2023-05-23T04:25:24;20.85;;;14.93;;
37203;SDS011;23098;48.054;10.636;2023-05-23T04:27:51;20.00;;;14.45;;
37203;SDS011;23098;48.054;10.636;2023-05-23T04:30:18;24.45;;;15.70;;
37203;SDS011;23098;48.054;10.636;2023-05-23T04:32:44;26.42;;;16.55;;
37203;SDS011;23098;48.054;10.636;2023-05-23T04:35:11;21.55;;;15.13;;
37203;SDS011;23098;48.054;10.636;2023-05-23T04:37:36;24.05;;;15.02;;
37203;SDS011;23098;48.054;10.636;2023-05-23T04:40:03;21.98;;;14.90;;
37203;SDS011;23098;48.054;10.636;2023-05-23T04:42:29;22.13;;;15.88;;
37203;SDS011;23098;48.054;10.636;2023-05-23T04:44:55;24.65;;;16.17;;
37203;SDS011;23098;48.054;10.636;2023-05-23T04:47:22;23.40;;;16.00;;
37203;SDS011;23098;48.054;10.636;2023-05-23T04:49:48;21.58;;;15.40;;
37203;SDS011;23098;48.054;10.636;2023-05-23T04:52:15;24.05;;;15.77;;
37203;SDS011;23098;48.054;10.636;2023-05-23T04:54:43;27.35;;;16.05;;
37203;SDS011;23098;48.054;10.636;2023-05-23T04:57:10;21.73;;;15.18;;
37203;SDS011;23098;48.054;10.636;2023-05-23T04:59:36;22.50;;;15.85;;
37203;SDS011;23098;48.054;10.636;2023-05-23T05:02:02;24.95;;;16.20;;
37203;SDS011;23098;48.054;10.636;2023-05-23T05:04:29;24.88;;;16.25;;
37203;SDS011;23098;48.054;10.636;2023-05-23T05:06:55;24.70;;;16.27;;
37203;SDS011;23098;48.054;10.636;2023-05-23T05:09:21;22.30;;;15.90;;
37203;SDS011;23098;48.054;10.636;2023-05-23T05:11:47;25.80;;;16.55;;
37203;SDS011;23098;48.054;10.636;2023-05-23T05:14:13;23.58;;;15.95;;
37203;SDS011;23098;48.054;10.636;2023-05-23T05:16:38;24.25;;;16.63;;
37203;SDS011;23098;48.054;10.636;2023-05-23T05:19:04;20.95;;;14.75;;
37203;SDS011;23098;48.054;10.636;2023-05-23T05:21:30;26.70;;;16.05;;
37203;SDS011;23098;48.054;10.636;2023-05-23T05:23:55;22.23;;;15.10;;
37203;SDS011;23098;48.054;10.636;2023-05-23T05:26:21;21.67;;;15.68;;
37203;SDS011;23098;48.054;10.636;2023-05-23T05:28:47;24.85;;;16.17;;
37203;SDS011;23098;48.054;10.636;2023-05-23T05:31:13;27.05;;;16.85;;
37203;SDS011;23098;48.054;10.636;2023-05-23T05:33:39;25.75;;;16.85;;
37203;SDS011;23098;48.054;10.636;2023-05-23T05:36:06;28.65;;;17.65;;
37203;SDS011;23098;48.054;10.636;2023-05-23T05:38:31;27.88;;;17.15;;
37203;SDS011;23098;48.054;10.636;2023-05-23T05:40:57;26.17;;;17.40;;
37203;SDS011;23098;48.054;10.636;2023-05-23T05:43:24;25.35;;;17.02;;
37203;SDS011;23098;48.054;10.636;2023-05-23T05:45:50;26.13;;;17.27;;
37203;SDS011;23098;48.054;10.636;2023-05-23T05:48:15;28.38;;;18.67;;
37203;SDS011;23098;48.054;10.636;2023-05-23T05:50:41;25.17;;;17.33;;
37203;SDS011;23098;48.054;10.636;2023-05-23T05:53:09;27.80;;;18.85;;
37203;SDS011;23098;48.054;10.636;2023-05-23T05:55:35;26.10;;;17.08;;
37203;SDS011;23098;48.054;10.636;2023-05-23T05:58:01;26.80;;;17.60;;
37203;SDS011;23098;48.054;10.636;2023-05-23T06:00:27;25.70;;;17.55;;
37203;SDS011;23098;48.054;10.636;2023-05-23T06:02:52;28.88;;;19.73;;
37203;SDS011;23098;48.054;10.636;2023-05-23T06:05:21;32.17;;;19.17;;
37203;SDS011;23098;48.054;10.636;2023-05-23T06:07:47;31.63;;;20.80;;
37203;SDS011;23098;48.054;10.636;2023-05-23T06:10:14;30.75;;;19.58;;
37203;SDS011;23098;48.054;10.636;2023-05-23T06:12:40;34.65;;;20.33;;
37203;SDS011;23098;48.054;10.636;2023-05-23T06:15:05;32.42;;;21.02;;
37203;SDS011;23098;48.054;10.636;2023-05-23T06:17:32;36.00;;;20.83;;
37203;SDS011;23098;48.054;10.636;2023-05-23T06:19:57;38.10;;;21.98;;
37203;SDS011;23098;48.054;10.636;2023-05-23T06:22:23;37.30;;;22.92;;
37203;SDS011;23098;48.054;10.636;2023-05-23T06:24:48;41.05;;;23.23;;
37203;SDS011;23098;48.054;10.636;2023-05-23T06:27:14;39.80;;;23.17;;
37203;SDS011;23098;48.054;10.636;2023-05-23T06:29:39;41.00;;;24.25;;
37203;SDS011;23098;48.054;10.636;2023-05-23T06:32:05;38.53;;;24.75;;
37203;SDS011;23098;48.054;10.636;2023-05-23T06:34:31;53.03;;;27.35;;
37203;SDS011;23098;48.054;10.636;2023-05-23T06:36:56;44.22;;;25.70;;
37203;SDS011;23098;48.054;10.636;2023-05-23T06:39:22;47.47;;;26.85;;
37203;SDS011;23098;48.054;10.636;2023-05-23T06:41:48;44.60;;;26.80;;
37203;SDS011;23098;48.054;10.636;2023-05-23T06:44:13;41.00;;;25.02;;
37203;SDS011;23098;48.054;10.636;2023-05-23T06:46:39;45.22;;;24.70;;
37203;SDS011;23098;48.054;10.636;2023-05-23T06:49:11;45.80;;;26.45;;
37203;SDS011;23098;48.054;10.636;2023-05-23T06:51:37;45.08;;;25.48;;
37203;SDS011;23098;48.054;10.636;2023-05-23T06:54:02;45.67;;;25.75;;
37203;SDS011;23098;48.054;10.636;2023-05-23T06:56:28;42.75;;;24.77;;
37203;SDS011;23098;48.054;10.636;2023-05-23T06:58:54;43.58;;;26.00;;
37203;SDS011;23098;48.054;10.636;2023-05-23T07:01:19;44.05;;;25.45;;
37203;SDS011;23098;48.054;10.636;2023-05-23T07:03:45;44.03;;;25.35;;
37203;SDS011;23098;48.054;10.636;2023-05-23T07:06:11;42.97;;;25.02;;
37203;SDS011;23098;48.054;10.636;2023-05-23T07:08:36;43.15;;;25.63;;
37203;SDS011;23098;48.054;10.636;2023-05-23T07:11:03;47.60;;;25.98;;
37203;SDS011;23098;48.054;10.636;2023-05-23T07:13:29;44.08;;;25.13;;
37203;SDS011;23098;48.054;10.636;2023-05-23T07:15:55;39.63;;;25.42;;
37203;SDS011;23098;48.054;10.636;2023-05-23T07:18:20;48.97;;;27.25;;
37203;SDS011;23098;48.054;10.636;2023-05-23T07:20:46;48.20;;;27.88;;
37203;SDS011;23098;48.054;10.636;2023-05-23T07:23:12;48.85;;;26.63;;
37203;SDS011;23098;48.054;10.636;2023-05-23T07:25:38;47.28;;;26.25;;
37203;SDS011;23098;48.054;10.636;2023-05-23T07:28:04;41.92;;;25.33;;
37203;SDS011;23098;48.054;10.636;2023-05-23T07:30:30;46.38;;;26.50;;
37203;SDS011;23098;48.054;10.636;2023-05-23T07:32:56;45.15;;;26.80;;
37203;SDS011;23098;48.054;10.636;2023-05-23T07:35:21;45.03;;;25.90;;
37203;SDS011;23098;48.054;10.636;2023-05-23T07:37:50;50.55;;;26.42;;
37203;SDS011;23098;48.054;10.636;2023-05-23T07:40:16;41.38;;;25.13;;
37203;SDS011;23098;48.054;10.636;2023-05-23T07:42:44;44.63;;;25.98;;
37203;SDS011;23098;48.054;10.636;2023-05-23T07:45:09;46.38;;;26.38;;
37203;SDS011;23098;48.054;10.636;2023-05-23T07:47:35;41.72;;;25.30;;
37203;SDS011;23098;48.054;10.636;2023-05-23T07:50:01;41.95;;;25.25;;
37203;SDS011;23098;48.054;10.636;2023-05-23T07:52:30;41.72;;;25.63;;
37203;SDS011;23098;48.054;10.636;2023-05-23T07:54:56;45.25;;;26.05;;
37203;SDS011;23098;48.054;10.636;2023-05-23T07:57:22;40.30;;;24.55;;
37203;SDS011;23098;48.054;10.636;2023-05-23T07:59:48;43.75;;;26.17;;
37203;SDS011;23098;48.054;10.636;2023-05-23T08:02:15;43.55;;;24.88;;
37203;SDS011;23098;48.054;10.636;2023-05-23T08:04:40;43.50;;;24.85;;
37203;SDS011;23098;48.054;10.636;2023-05-23T08:07:06;40.33;;;25.25;;
37203;SDS011;23098;48.054;10.636;2023-05-23T08:09:32;47.13;;;26.05;;
37203;SDS011;23098;48.054;10.636;2023-05-23T08:11:58;46.40;;;25.50;;
37203;SDS011;23098;48.054;10.636;2023-05-23T08:14:23;40.15;;;24.95;;
37203;SDS011;23098;48.054;10.636;2023-05-23T08:16:49;42.53;;;24.25;;
37203;SDS011;23098;48.054;10.636;2023-05-23T08:19:15;42.50;;;24.48;;
37203;SDS011;23098;48.054;10.636;2023-05-23T08:21:40;43.83;;;23.92;;
37203;SDS011;23098;48.054;10.636;2023-05-23T08:24:06;40.15;;;23.15;;
37203;SDS011;23098;48.054;10.636;2023-05-23T08:26:32;37.60;;;24.02;;
37203;SDS011;23098;48.054;10.636;2023-05-23T08:29:01;43.50;;;23.90;;
37203;SDS011;23098;48.054;10.636;2023-05-23T08:31:28;40.08;;;23.30;;
37203;SDS011;23098;48.054;10.636;2023-05-23T08:33:53;44.83;;;25.45;;
37203;SDS011;23098;48.054;10.636;2023-05-23T08:36:19;42.40;;;25.33;;
37203;SDS011;23098;48.054;10.636;2023-05-23T08:38:44;45.35;;;26.20;;
37203;SDS011;23098;48.054;10.636;2023-05-23T08:41:20;45.03;;;26.17;;
37203;SDS011;23098;48.054;10.636;2023-05-23T08:43:47;49.08;;;25.77;;
37203;SDS011;23098;48.054;10.636;2023-05-23T08:46:13;44.10;;;26.20;;
37203;SDS011;23098;48.054;10.636;2023-05-23T08:48:39;45.30;;;27.25;;
37203;SDS011;23098;48.054;10.636;2023-05-23T08:51:08;43.80;;;26.80;;
37203;SDS011;23098;48.054;10.636;2023-05-23T08:53:37;45.53;;;27.80;;
37203;SDS011;23098;48.054;10.636;2023-05-23T08:56:05;45.60;;;27.38;;
37203;SDS011;23098;48.054;10.636;2023-05-23T08:58:32;47.65;;;26.73;;
37203;SDS011;23098;48.054;10.636;2023-05-23T09:00:59;46.17;;;28.08;;
37203;SDS011;23098;48.054;10.636;2023-05-23T09:03:26;46.63;;;28.05;;
37203;SDS011;23098;48.054;10.636;2023-05-23T09:05:55;46.97;;;27.17;;
37203;SDS011;23098;48.054;10.636;2023-05-23T09:08:21;46.88;;;27.95;;
37203;SDS011;23098;48.054;10.636;2023-05-23T09:10:48;54.85;;;28.27;;
37203;SDS011;23098;48.054;10.636;2023-05-23T09:13:15;47.72;;;29.10;;
37203;SDS011;23098;48.054;10.636;2023-05-23T09:16:03;51.03;;;30.17;;
37203;SDS011;23098;48.054;10.636;2023-05-23T09:18:44;55.78;;;30.67;;
37203;SDS011;23098;48.054;10.636;2023-05-23T09:21:11;53.60;;;29.10;;
37203;SDS011;23098;48.054;10.636;2023-05-23T09:23:40;52.40;;;30.38;;
37203;SDS011;23098;48.054;10.636;2023-05-23T09:26:06;55.00;;;29.80;;
37203;SDS011;23098;48.054;10.636;2023-05-23T09:28:37;57.60;;;30.33;;
37203;SDS011;23098;48.054;10.636;2023-05-23T09:31:05;46.83;;;28.20;;
37203;SDS011;23098;48.054;10.636;2023-05-23T09:33:37;47.90;;;27.65;;
37203;SDS011;23098;48.054;10.636;2023-05-23T09:36:11;47.40;;;27.30;;
37203;SDS011;23098;48.054;10.636;2023-05-23T09:38:37;39.53;;;25.05;;
37203;SDS011;23098;48.054;10.636;2023-05-23T09:41:03;44.03;;;25.98;;
37203;SDS011;23098;48.054;10.636;2023-05-23T09:43:29;45.15;;;26.80;;
37203;SDS011;23098;48.054;10.636;2023-05-23T09:45:59;45.72;;;26.67;;
37203;SDS011;23098;48.054;10.636;2023-05-23T09:48:32;43.90;;;26.23;;
37203;SDS011;23098;48.054;10.636;2023-05-23T09:50:58;46.53;;;26.67;;
37203;SDS011;23098;48.054;10.636;2023-05-23T09:53:28;45.60;;;25.70;;
37203;SDS011;23098;48.054;10.636;2023-05-23T09:55:54;43.13;;;25.65;;
37203;SDS011;23098;48.054;10.636;2023-05-23T09:58:22;44.58;;;26.63;;
37203;SDS011;23098;48.054;10.636;2023-05-23T10:00:50;48.95;;;26.67;;
37203;SDS011;23098;48.054;10.636;2023-05-23T10:03:18;43.67;;;25.67;;
37203;SDS011;23098;48.054;10.636;2023-05-23T10:05:59;45.97;;;26.40;;
37203;SDS011;23098;48.054;10.636;2023-05-23T10:08:33;42.97;;;25.05;;
37203;SDS011;23098;48.054;10.636;2023-05-23T10:13:40;37.10;;;23.10;;
37203;SDS011;23098;48.054;10.636;2023-05-23T10:16:21;39.92;;;23.52;;
37203;SDS011;23098;48.054;10.636;2023-05-23T10:18:57;40.13;;;24.25;;
37203;SDS011;23098;48.054;10.636;2023-05-23T10:21:29;42.90;;;24.85;;
37203;SDS011;23098;48.054;10.636;2023-05-23T10:23:59;39.38;;;24.00;;
37203;SDS011;23098;48.054;10.636;2023-05-23T10:26:28;44.83;;;24.23;;
37203;SDS011;23098;48.054;10.636;2023-05-23T10:28:53;36.08;;;22.42;;
37203;SDS011;23098;48.054;10.636;2023-05-23T10:31:21;44.20;;;24.50;;
37203;SDS011;23098;48.054;10.636;2023-05-23T10:33:59;43.10;;;26.00;;
37203;SDS011;23098;48.054;10.636;2023-05-23T10:36:34;42.83;;;25.38;;
37203;SDS011;23098;48.054;10.636;2023-05-23T10:42:08;52.47;;;28.08;;
37203;SDS011;23098;48.054;10.636;2023-05-23T10:47:41;47.90;;;26.40;;
37203;SDS011;23098;48.054;10.636;2023-05-23T10:50:10;46.78;;;27.02;;
37203;SDS011;23098;48.054;10.636;2023-05-23T10:52:38;43.78;;;26.65;;
37203;SDS011;23098;48.054;10.636;2023-05-23T10:55:11;44.95;;;26.10;;
37203;SDS011;23098;48.054;10.636;2023-05-23T10:57:41;40.38;;;25.15;;
37203;SDS011;23098;48.054;10.636;2023-05-23T11:00:12;40.80;;;25.60;;
37203;SDS011;23098;48.054;10.636;2023-05-23T11:02:55;41.70;;;26.05;;
37203;SDS011;23098;48.054;10.636;2023-05-23T11:05:24;41.03;;;23.65;;
37203;SDS011;23098;48.054;10.636;2023-05-23T11:08:05;43.30;;;24.50;;
37203;SDS011;23098;48.054;10.636;2023-05-23T11:10:50;42.20;;;24.50;;
37203;SDS011;23098;48.054;10.636;2023-05-23T11:13:17;39.60;;;24.42;;
37203;SDS011;23098;48.054;10.636;2023-05-23T11:15:45;37.85;;;24.42;;
37203;SDS011;23098;48.054;10.636;2023-05-23T11:18:18;39.30;;;23.42;;
37203;SDS011;23098;48.054;10.636;2023-05-23T11:20:45;36.75;;;22.27;;
37203;SDS011;23098;48.054;10.636;2023-05-23T11:23:11;40.25;;;23.05;;
37203;SDS011;23098;48.054;10.636;2023-05-23T11:25:44;38.65;;;23.10;;
37203;SDS011;23098;48.054;10.636;2023-05-23T11:28:13;36.78;;;22.77;;
37203;SDS011;23098;48.054;10.636;2023-05-23T11:30:39;38.47;;;23.63;;
37203;SDS011;23098;48.054;10.636;2023-05-23T11:33:06;39.95;;;23.15;;
37203;SDS011;23098;48.054;10.636;2023-05-23T11:35:44;38.05;;;23.13;;
37203;SDS011;23098;48.054;10.636;2023-05-23T11:38:13;35.13;;;22.60;;
37203;SDS011;23098;48.054;10.636;2023-05-23T11:40:41;39.85;;;24.00;;
37203;SDS011;23098;48.054;10.636;2023-05-23T11:43:12;37.95;;;22.52;;
37203;SDS011;23098;48.054;10.636;2023-05-23T11:45:39;41.65;;;24.48;;
37203;SDS011;23098;48.054;10.636;2023-05-23T11:48:06;43.55;;;25.52;;
37203;SDS011;23098;48.054;10.636;2023-05-23T11:50:47;42.70;;;26.10;;
37203;SDS011;23098;48.054;10.636;2023-05-23T11:53:13;44.28;;;25.02;;
37203;SDS011;23098;48.054;10.636;2023-05-23T11:55:47;43.05;;;25.85;;
37203;SDS011;23098;48.054;10.636;2023-05-23T11:58:14;40.60;;;25.13;;
37203;SDS011;23098;48.054;10.636;2023-05-23T12:00:44;42.95;;;26.10;;
37203;SDS011;23098;48.054;10.636;2023-05-23T12:03:09;43.00;;;25.67;;
37203;SDS011;23098;48.054;10.636;2023-05-23T12:05:35;41.33;;;23.65;;
37203;SDS011;23098;48.054;10.636;2023-05-23T12:08:01;34.83;;;23.10;;
37203;SDS011;23098;48.054;10.636;2023-05-23T12:10:28;36.38;;;23.88;;
37203;SDS011;23098;48.054;10.636;2023-05-23T12:12:54;39.63;;;24.05;;
37203;SDS011;23098;48.054;10.636;2023-05-23T12:15:23;39.08;;;24.98;;
37203;SDS011;23098;48.054;10.636;2023-05-23T12:17:54;35.28;;;23.67;;
37203;SDS011;23098;48.054;10.636;2023-05-23T12:20:20;37.45;;;25.30;;
37203;SDS011;23098;48.054;10.636;2023-05-23T12:22:48;36.47;;;24.48;;
37203;SDS011;23098;48.054;10.636;2023-05-23T12:25:13;39.47;;;25.13;;
37203;SDS011;23098;48.054;10.636;2023-05-23T12:27:39;39.83;;;25.45;;
37203;SDS011;23098;48.054;10.636;2023-05-23T12:30:08;36.45;;;24.45;;
37203;SDS011;23098;48.054;10.636;2023-05-23T12:32:39;26.70;;;18.65;;
37203;SDS011;23098;48.054;10.636;2023-05-23T12:35:06;24.85;;;18.00;;
37203;SDS011;23098;48.054;10.636;2023-05-23T12:37:33;28.90;;;18.38;;
37203;SDS011;23098;48.054;10.636;2023-05-23T12:40:08;23.48;;;18.17;;
37203;SDS011;23098;48.054;10.636;2023-05-23T12:45:17;23.65;;;17.55;;
37203;SDS011;23098;48.054;10.636;2023-05-23T12:47:55;24.75;;;19.30;;
37203;SDS011;23098;48.054;10.636;2023-05-23T12:50:22;29.60;;;19.17;;
37203;SDS011;23098;48.054;10.636;2023-05-23T12:52:49;27.08;;;20.17;;
37203;SDS011;23098;48.054;10.636;2023-05-23T12:55:16;26.90;;;19.95;;
37203;SDS011;23098;48.054;10.636;2023-05-23T12:57:41;29.00;;;21.73;;
37203;SDS011;23098;48.054;10.636;2023-05-23T13:00:08;27.52;;;19.75;;
37203;SDS011;23098;48.054;10.636;2023-05-23T13:02:34;26.80;;;20.20;;
37203;SDS011;23098;48.054;10.636;2023-05-23T13:05:00;29.17;;;18.58;;
37203;SDS011;23098;48.054;10.636;2023-05-23T13:07:26;23.98;;;17.60;;
37203;SDS011;23098;48.054;10.636;2023-05-23T13:10:16;25.58;;;16.80;;
37203;SDS011;23098;48.054;10.636;2023-05-23T13:12:41;25.77;;;16.95;;
37203;SDS011;23098;48.054;10.636;2023-05-23T13:15:07;25.88;;;17.63;;
37203;SDS011;23098;48.054;10.636;2023-05-23T13:17:33;22.45;;;16.35;;
37203;SDS011;23098;48.054;10.636;2023-05-23T13:19:58;22.23;;;16.00;;
37203;SDS011;23098;48.054;10.636;2023-05-23T13:22:25;22.77;;;17.10;;
37203;SDS011;23098;48.054;10.636;2023-05-23T13:24:50;25.83;;;17.05;;
37203;SDS011;23098;48.054;10.636;2023-05-23T13:27:16;24.27;;;18.00;;
37203;SDS011;23098;48.054;10.636;2023-05-23T13:29:42;25.58;;;18.10;;
37203;SDS011;23098;48.054;10.636;2023-05-23T13:32:08;24.50;;;17.38;;
37203;SDS011;23098;48.054;10.636;2023-05-23T13:34:33;24.55;;;17.42;;
37203;SDS011;23098;48.054;10.636;2023-05-23T13:37:01;22.23;;;17.38;;
37203;SDS011;23098;48.054;10.636;2023-05-23T13:39:26;23.27;;;16.88;;
37203;SDS011;23098;48.054;10.636;2023-05-23T13:41:52;20.63;;;15.60;;
37203;SDS011;23098;48.054;10.636;2023-05-23T13:44:17;21.98;;;15.57;;
37203;SDS011;23098;48.054;10.636;2023-05-23T13:46:43;21.17;;;15.05;;
37203;SDS011;23098;48.054;10.636;2023-05-23T13:49:08;20.45;;;14.85;;
37203;SDS011;23098;48.054;10.636;2023-05-23T13:51:34;18.00;;;14.40;;
37203;SDS011;23098;48.054;10.636;2023-05-23T13:54:01;16.65;;;13.80;;
37203;SDS011;23098;48.054;10.636;2023-05-23T13:56:27;20.20;;;14.45;;
37203;SDS011;23098;48.054;10.636;2023-05-23T13:58:54;17.80;;;14.48;;
37203;SDS011;23098;48.054;10.636;2023-05-23T14:01:19;20.15;;;13.27;;
37203;SDS011;23098;48.054;10.636;2023-05-23T14:03:45;18.77;;;13.55;;
37203;SDS011;23098;48.054;10.636;2023-05-23T14:06:11;18.13;;;13.35;;
37203;SDS011;23098;48.054;10.636;2023-05-23T14:08:36;18.75;;;13.30;;
37203;SDS011;23098;48.054;10.636;2023-05-23T14:11:02;16.17;;;13.73;;
37203;SDS011;23098;48.054;10.636;2023-05-23T14:13:27;15.88;;;13.80;;
37203;SDS011;23098;48.054;10.636;2023-05-23T14:15:53;17.67;;;13.55;;
37203;SDS011;23098;48.054;10.636;2023-05-23T14:18:18;13.70;;;12.13;;
37203;SDS011;23098;48.054;10.636;2023-05-23T14:20:44;15.82;;;12.00;;
37203;SDS011;23098;48.054;10.636;2023-05-23T14:23:10;16.48;;;11.52;;